createdAt,value
2019-05-22T16:50:58.001Z,981.32
2019-05-22T16:55:57.728Z,981.33
2019-05-22T17:00:58.115Z,981.34
2019-05-22T17:05:58.923Z,981.33
2019-05-22T17:10:59.223Z,981.35
2019-05-22T17:16:01.640Z,981.36
2019-05-22T17:21:02.659Z,981.38
2019-05-22T17:26:02.778Z,981.36
2019-05-22T17:31:02.867Z,981.36
2019-05-22T17:36:11.264Z,981.38
2019-05-22T17:41:11.540Z,981.45
2019-05-22T17:46:12.141Z,981.47
2019-05-22T17:51:13.636Z,981.5
2019-05-22T17:56:13.591Z,981.58
2019-05-22T18:01:13.791Z,981.57
2019-05-22T18:06:14.487Z,981.59
2019-05-22T18:11:13.974Z,981.65
2019-05-22T18:16:14.176Z,981.69
2019-05-22T18:21:14.535Z,981.71
2019-05-22T18:26:14.541Z,981.75
2019-05-22T18:31:20.965Z,981.83
2019-05-22T18:36:21.002Z,981.86
2019-05-22T18:41:21.039Z,981.92
2019-05-22T18:46:21.076Z,981.93
2019-05-22T18:51:21.143Z,981.98
2019-05-22T18:56:21.267Z,981.94
2019-05-22T19:01:21.668Z,982.02
2019-05-22T19:06:31.323Z,982.09
2019-05-22T19:11:21.847Z,982.11
2019-05-22T19:16:21.793Z,982.2
2019-05-22T19:21:21.912Z,982.21
2019-05-22T19:26:28.414Z,982.3
2019-05-22T19:31:28.261Z,982.32
2019-05-22T19:36:28.374Z,982.36
2019-05-22T19:41:28.411Z,982.46
2019-05-22T19:46:28.447Z,982.49
2019-05-22T19:51:28.564Z,982.53
2019-05-22T19:56:28.602Z,982.52
2019-05-22T20:01:28.675Z,982.55
2019-05-22T20:06:28.756Z,982.61
2019-05-22T20:11:28.874Z,982.58
2019-05-22T20:16:28.881Z,982.61
2019-05-22T20:21:35.544Z,982.64
2019-05-22T20:26:35.486Z,982.66
2019-05-22T20:31:35.935Z,982.68
2019-05-22T20:36:35.780Z,982.72
2019-05-22T20:41:35.812Z,982.73
2019-05-22T20:46:38.479Z,982.71
2019-05-22T20:51:35.908Z,982.74
2019-05-22T20:56:36.249Z,982.7
2019-05-22T21:01:36.020Z,982.71
2019-05-22T21:06:36.058Z,982.72
2019-05-22T21:11:36.097Z,982.69
2019-05-22T21:16:42.843Z,982.75
2019-05-22T21:21:42.791Z,982.76
2019-05-22T21:26:42.659Z,982.73
2019-05-22T21:31:43.163Z,982.73
2019-05-22T21:36:42.794Z,982.73
2019-05-22T21:41:42.806Z,982.7
2019-05-22T21:46:42.922Z,982.66
2019-05-22T21:51:42.963Z,982.64
2019-05-22T21:56:42.990Z,982.63
2019-05-22T22:01:43.026Z,982.66
2019-05-22T22:06:43.172Z,982.68
2019-05-22T22:11:47.500Z,982.67
2019-05-22T22:16:47.536Z,982.68
2019-05-22T22:21:47.653Z,982.72
2019-05-22T22:26:47.696Z,982.72
2019-05-22T22:31:47.724Z,982.76
2019-05-22T22:36:47.837Z,982.77
2019-05-22T22:41:47.845Z,982.79
2019-05-22T22:46:47.884Z,982.76
2019-05-22T22:51:47.997Z,982.81
2019-05-22T22:56:48.065Z,982.8
2019-05-22T23:01:48.261Z,982.83
2019-05-22T23:06:56.442Z,982.83
2019-05-22T23:11:56.470Z,982.84
2019-05-22T23:16:56.506Z,982.83
2019-05-22T23:21:56.653Z,982.9
2019-05-22T23:26:56.701Z,982.89
2019-05-22T23:31:56.777Z,982.84
2019-05-22T23:36:56.812Z,982.88
2019-05-22T23:41:57.093Z,982.88
2019-05-22T23:46:57.001Z,982.83
2019-05-22T23:51:57.120Z,982.84
2019-05-22T23:56:57.444Z,982.94
